Time;durP1;ratioP1;P1;durP2;ratioP2;P2;SDS_P1;SDS_P2;PMS_P1;PMS_P2;Temp;Humidity;BMP_temperature;BMP_pressure;BME280_temperature;BME280_humidity;BME280_pressure;Samples;Min_cycle;Max_cycle;Signal;HPM_P1;HPM_P2
2021/08/01 00:02:22;;;;;;;;;0.00;0.00;;;;;27.04;37.96;100395.03;5074484;28;45405;-59
2021/08/01 00:04:48;;;;;;;;;0.00;0.00;;;;;27.04;37.71;100396.88;5074714;28;45368;-59
2021/08/01 00:07:13;;;;;;;;;0.00;0.00;;;;;27.02;38.21;100387.91;5056005;28;46307;-59
2021/08/01 00:09:38;;;;;;;;;0.00;0.00;;;;;27.03;38.07;100395.13;5055959;28;45760;-59
2021/08/01 00:12:04;;;;;;;;;0.00;0.00;;;;;27.02;38.40;100394.25;5074468;28;45614;-59
2021/08/01 00:14:29;;;;;;;;;0.00;0.00;;;;;27.01;38.29;100391.63;5074586;28;45715;-59
2021/08/01 00:16:58;;;;;;;;;0.00;0.00;;;;;27.02;37.99;100396.09;5074054;28;46147;-59
2021/08/01 00:19:24;;;;;;;;;0.00;0.00;;;;;27.01;38.48;100400.69;5074242;28;45459;-59
2021/08/01 00:21:49;;;;;;;;;0.00;0.00;;;;;27.02;37.95;100390.63;5074378;28;45864;-59
2021/08/01 00:24:16;;;;;;;;;0.00;0.00;;;;;27.01;38.07;100397.94;5074245;28;45454;-59
2021/08/01 00:26:41;;;;;;;;;0.00;0.00;;;;;27.01;38.32;100399.81;5074237;28;45432;-59
2021/08/01 00:29:07;;;;;;;;;0.00;0.00;;;;;27.01;37.87;100397.09;5073159;28;45688;-59
2021/08/01 00:31:32;;;;;;;;;0.00;0.00;;;;;27.00;38.32;100400.75;5074103;28;45422;-59
2021/08/01 00:33:59;;;;;;;;;0.00;0.00;;;;;26.99;38.45;100399.91;5074167;28;45441;-59
2021/08/01 00:36:25;;;;;;;;;0.00;0.00;;;;;26.98;38.04;100400.84;5055750;28;46094;-58
2021/08/01 00:38:50;;;;;;;;;0.00;0.00;;;;;26.97;38.22;100398.25;5055454;28;45431;-59
2021/08/01 00:41:15;;;;;;;;;0.00;0.00;;;;;26.99;38.33;100399.03;5074076;28;45643;-59
2021/08/01 00:43:41;;;;;;;;;0.00;0.00;;;;;26.99;38.22;100404.47;5074132;28;45402;-59
2021/08/01 00:46:06;;;;;;;;;0.00;0.00;;;;;26.99;38.10;100404.47;5073614;28;45448;-59
2021/08/01 00:48:33;;;;;;;;;0.00;0.00;;;;;27.00;38.56;100407.09;5073896;28;45957;-59
2021/08/01 00:50:59;;;;;;;;;0.00;0.00;;;;;26.99;38.00;100404.47;5074076;28;45530;-59
2021/08/01 00:53:25;;;;;;;;;0.00;0.00;;;;;26.99;38.06;100396.28;5055622;28;45466;-59
2021/08/01 00:55:51;;;;;;;;;0.00;0.00;;;;;26.98;38.16;100395.41;5073434;28;46643;-59
2021/08/01 00:58:16;;;;;;;;;0.00;0.00;;;;;26.99;38.58;100396.28;5073690;28;45824;-59
2021/08/01 01:03:18;;;;;;;;;0.00;0.00;;;;;26.99;38.04;100397.16;5077433;27;45500;-59
2021/08/01 01:06:01;;;;;;;;;0.00;0.00;;;;;26.97;38.18;100390.91;5076838;28;47225;-59
2021/08/01 01:08:53;;;;;;;;;0.00;0.00;;;;;26.98;38.31;100397.25;5077244;28;45599;-59
2021/08/01 01:11:22;;;;;;;;;0.00;0.00;;;;;26.98;38.24;100397.25;5077131;28;45459;-58
2021/08/01 01:13:54;;;;;;;;;0.00;0.00;;;;;26.99;38.01;100393.56;5077132;28;45408;-59
2021/08/01 01:16:19;;;;;;;;;0.00;0.00;;;;;26.97;38.05;100400.97;5076702;28;46245;-59
2021/08/01 01:18:51;;;;;;;;;0.00;0.00;;;;;26.97;38.26;100407.28;5076911;28;45613;-59
2021/08/01 01:21:38;;;;;;;;;0.00;0.00;;;;;26.97;38.60;100409.16;5058680;28;45647;-59
2021/08/01 01:24:08;;;;;;;;;0.00;0.00;;;;;26.95;38.10;100403.78;5076867;28;45457;-57
2021/08/01 01:26:42;;;;;;;;;0.00;0.00;;;;;26.97;38.15;100401.84;5076414;28;45999;-58
2021/08/01 01:29:23;;;;;;;;;0.00;0.00;;;;;26.96;38.13;100396.47;5075483;28;45442;-59
2021/08/01 01:31:59;;;;;;;;;0.00;0.00;;;;;26.97;38.45;100395.50;5042292;28;45630;-58
2021/08/01 01:34:36;;;;;;;;;0.00;0.00;;;;;26.96;38.00;100402.78;5076784;28;45538;-56
2021/08/01 01:37:05;;;;;;;;;0.00;0.00;;;;;26.97;38.58;100398.25;5076426;28;45436;-59
2021/08/01 01:39:32;;;;;;;;;0.00;0.00;;;;;26.97;38.50;100400.97;5076629;28;45491;-58
2021/08/01 01:41:59;;;;;;;;;0.00;0.00;;;;;26.96;38.35;100396.47;5076670;28;45488;-59
2021/08/01 01:44:25;;;;;;;;;0.00;0.00;;;;;26.95;38.57;100398.31;5076631;28;45480;-59
2021/08/01 01:46:51;;;;;;;;;0.00;0.00;;;;;26.94;38.12;100402.00;5075350;28;46105;-59
2021/08/01 01:49:17;;;;;;;;;0.00;0.00;;;;;26.96;38.14;100404.66;5076230;28;45467;-59
2021/08/01 01:51:45;;;;;;;;;0.00;0.00;;;;;26.94;38.00;100392.00;5076542;28;45452;-59
2021/08/01 01:54:12;;;;;;;;;0.00;0.00;;;;;26.96;38.06;100399.19;5076330;28;45367;-59
2021/08/01 01:56:39;;;;;;;;;0.00;0.00;;;;;26.94;38.12;100394.72;5076056;28;45538;-57
2021/08/01 01:59:04;;;;;;;;;0.00;0.00;;;;;26.94;38.48;100396.53;5058015;28;45460;-58
2021/08/01 02:01:30;;;;;;;;;0.00;0.00;;;;;26.95;38.55;100398.31;5057889;28;45428;-59
2021/08/01 02:03:55;;;;;;;;;0.00;0.00;;;;;26.93;38.37;100387.50;5076246;27;45465;-59
2021/08/01 02:06:21;;;;;;;;;0.00;0.00;;;;;26.94;38.56;100394.72;5057943;28;46830;-59
2021/08/01 02:08:58;;;;;;;;;0.00;0.00;;;;;26.94;37.99;100386.53;5076044;28;45414;-59
2021/08/01 02:11:33;;;;;;;;;0.00;0.00;;;;;26.94;38.20;100383.81;5075761;28;45406;-59
2021/08/01 02:14:02;;;;;;;;;0.00;0.00;;;;;26.93;38.19;100390.22;5076261;28;45420;-58
2021/08/01 02:16:33;;;;;;;;;0.00;0.00;;;;;26.93;38.22;100390.22;5075778;28;45401;-59
2021/08/01 02:19:04;;;;;;;;;0.00;0.00;;;;;26.92;38.39;100395.75;5075954;28;45445;-58
2021/08/01 02:21:32;;;;;;;;;0.00;0.00;;;;;26.94;38.68;100396.53;5076367;28;45789;-59
2021/08/01 02:24:00;;;;;;;;;0.00;0.00;;;;;26.93;38.18;100394.81;5076087;28;45327;-59
2021/08/01 02:26:26;;;;;;;;;0.00;0.00;;;;;26.90;38.43;100390.38;5075491;28;45444;-59
2021/08/01 02:28:54;;;;;;;;;0.00;0.00;;;;;26.92;38.14;100391.22;5074440;28;45393;-59
2021/08/01 02:31:21;;;;;;;;;0.00;0.00;;;;;26.92;38.83;100388.47;5075961;28;45484;-58
2021/08/01 02:33:48;;;;;;;;;0.00;0.00;;;;;26.93;38.27;100392.06;5057730;28;45494;-57
2021/08/01 02:36:17;;;;;;;;;0.00;0.00;;;;;26.92;38.43;100393.94;5075531;28;45824;-58
2021/08/01 02:38:45;;;;;;;;;0.00;0.00;;;;;26.92;38.31;100391.22;5057395;28;45953;-59
2021/08/01 02:41:19;;;;;;;;;0.00;0.00;;;;;26.91;38.56;100397.63;5057398;28;45512;-59
2021/08/01 02:43:47;;;;;;;;;0.00;0.00;;;;;26.91;38.47;100391.28;5075858;28;45485;-58
2021/08/01 02:46:16;;;;;;;;;0.00;0.00;;;;;26.92;38.47;100395.75;5075199;28;45451;-59
2021/08/01 02:48:41;;;;;;;;;0.00;0.00;;;;;26.91;38.73;100381.25;5075254;28;45673;-58
2021/08/01 02:51:07;;;;;;;;;0.00;0.00;;;;;26.91;38.71;100383.97;5075527;28;45518;-59
2021/08/01 02:53:39;;;;;;;;;0.00;0.00;;;;;26.91;38.42;100383.09;5057341;28;44896;-59
2021/08/01 02:56:08;;;;;;;;;0.00;0.00;;;;;26.91;38.74;100381.25;5075268;28;45412;-59
2021/08/01 02:58:36;;;;;;;;;0.00;0.00;;;;;26.87;38.52;100379.66;5075160;28;45511;-59
2021/08/01 03:01:02;;;;;;;;;0.00;0.00;;;;;26.89;38.10;100385.91;5057169;28;45527;-59
2021/08/01 03:03:28;;;;;;;;;0.00;0.00;;;;;26.89;38.77;100385.03;5075447;28;45345;-59
2021/08/01 03:05:54;;;;;;;;;0.00;0.00;;;;;26.90;38.77;100386.78;5074904;28;46190;-59
2021/08/01 03:08:20;;;;;;;;;0.00;0.00;;;;;26.89;38.22;100383.19;5075237;28;45418;-59
2021/08/01 03:10:48;;;;;;;;;0.00;0.00;;;;;26.88;38.56;100389.59;5075084;28;45473;-59
2021/08/01 03:13:14;;;;;;;;;0.00;0.00;;;;;26.88;38.79;100383.28;5075647;28;45509;-58
2021/08/01 03:15:39;;;;;;;;;0.00;0.00;;;;;26.87;38.57;100384.25;5074986;28;45457;-58
2021/08/01 03:18:05;;;;;;;;;0.00;0.00;;;;;26.87;38.70;100378.81;5074945;28;45484;-59
2021/08/01 03:20:30;;;;;;;;;0.00;0.00;;;;;26.85;38.18;100376.16;5074874;28;45523;-59
2021/08/01 03:22:56;;;;;;;;;0.00;0.00;;;;;26.85;38.63;100381.63;5074198;28;45543;-58
2021/08/01 03:25:21;;;;;;;;;0.00;0.00;;;;;26.84;38.72;100377.09;5074754;28;46640;-58
2021/08/01 03:27:47;;;;;;;;;0.00;0.00;;;;;26.81;38.70;100365.53;5074928;28;45365;-58
2021/08/01 03:30:12;;;;;;;;;0.00;0.00;;;;;26.83;38.39;100378.09;5073499;28;45432;-54
2021/08/01 03:32:37;;;;;;;;;0.00;0.00;;;;;26.83;38.31;100377.22;5074881;28;45406;-58
2021/08/01 03:35:04;;;;;;;;;0.00;0.00;;;;;26.83;38.38;100378.09;5074528;28;45396;-59
2021/08/01 03:37:30;;;;;;;;;0.00;0.00;;;;;26.82;38.67;100381.78;5056276;28;45490;-59
2021/08/01 03:40:02;;;;;;;;;0.00;0.00;;;;;26.80;38.20;100378.25;5074693;28;45717;-58
2021/08/01 03:42:27;;;;;;;;;0.00;0.00;;;;;26.80;38.60;100369.22;5074916;28;45413;-59
2021/08/01 03:44:52;;;;;;;;;0.00;0.00;;;;;26.79;38.24;100371.06;5074461;28;45415;-59
2021/08/01 03:47:18;;;;;;;;;0.00;0.00;;;;;26.78;38.59;100380.19;5074356;28;45421;-59
2021/08/01 03:49:44;;;;;;;;;0.00;0.00;;;;;26.78;38.46;100373.88;5056483;28;45706;-59
2021/08/01 03:52:12;;;;;;;;;0.00;0.00;;;;;26.76;38.40;100376.69;5074691;28;45422;-59
2021/08/01 03:54:38;;;;;;;;;0.00;0.00;;;;;26.76;38.86;100375.81;5073741;28;45487;-59
2021/08/01 03:57:03;;;;;;;;;0.00;0.00;;;;;26.75;38.70;100374.94;5074356;28;45758;-59
2021/08/01 03:59:36;;;;;;;;;0.00;0.00;;;;;26.74;38.24;100373.16;5056114;28;45399;-59
2021/08/01 04:02:03;;;;;;;;;0.00;0.00;;;;;26.71;38.59;100368.78;5074493;28;45575;-59
2021/08/01 04:04:28;;;;;;;;;0.00;0.00;;;;;26.73;38.46;100371.44;5074423;28;45846;-59
2021/08/01 04:06:54;;;;;;;;;0.00;0.00;;;;;26.73;38.59;100371.44;5074057;28;45483;-59
2021/08/01 04:09:19;;;;;;;;;0.00;0.00;;;;;26.74;38.41;100375.91;5074479;28;45451;-59
2021/08/01 04:11:46;;;;;;;;;0.00;0.00;;;;;26.72;38.45;100367.84;5074498;28;45470;-59
2021/08/01 04:14:12;;;;;;;;;0.00;0.00;;;;;26.71;38.72;100366.06;5074027;28;45556;-56
2021/08/01 04:16:37;;;;;;;;;0.00;0.00;;;;;26.72;38.57;100369.66;5074262;28;45420;-59
2021/08/01 04:19:10;;;;;;;;;0.00;0.00;;;;;26.72;38.72;100372.38;5074239;28;45444;-59
2021/08/01 04:21:40;;;;;;;;;0.00;0.00;;;;;26.70;38.43;100377.97;5055919;28;45557;-59
2021/08/01 04:24:06;;;;;;;;;0.00;0.00;;;;;26.71;38.46;100381.56;5074012;28;45502;-59
2021/08/01 04:26:31;;;;;;;;;0.00;0.00;;;;;26.71;38.52;100376.09;5074089;28;45748;-59
2021/08/01 04:29:00;;;;;;;;;0.00;0.00;;;;;26.71;38.42;100373.38;5073860;28;45440;-59
2021/08/01 04:31:25;;;;;;;;;0.00;0.00;;;;;26.71;38.76;100379.69;5073827;28;45522;-59
2021/08/01 04:33:51;;;;;;;;;0.00;0.00;;;;;26.72;38.70;100377.84;5075350;28;46367;-58
2021/08/01 04:36:17;;;;;;;;;0.00;0.00;;;;;26.70;38.57;100382.50;5077434;28;44811;-59
2021/08/01 04:38:43;;;;;;;;;0.00;0.00;;;;;26.71;38.64;100385.16;5077547;28;45506;-59
2021/08/01 04:41:08;;;;;;;;;0.00;0.00;;;;;26.70;38.40;100382.50;5077600;28;45402;-59
2021/08/01 04:43:33;;;;;;;;;0.00;0.00;;;;;26.70;38.64;100383.41;5077413;28;46100;-58
2021/08/01 04:45:59;;;;;;;;;0.00;0.00;;;;;26.70;38.46;100375.22;5077383;28;45792;-59
2021/08/01 04:48:26;;;;;;;;;0.00;0.00;;;;;26.71;38.71;100381.56;5077468;28;45726;-59
2021/08/01 04:50:51;;;;;;;;;0.00;0.00;;;;;26.69;38.79;100381.63;5077700;28;44880;-59
2021/08/01 04:53:17;;;;;;;;;0.00;0.00;;;;;26.70;38.85;100382.50;5077102;28;46283;-59
2021/08/01 04:55:42;;;;;;;;;0.00;0.00;;;;;26.69;38.46;100376.19;5076938;28;45464;-59
2021/08/01 04:58:08;;;;;;;;;0.00;0.00;;;;;26.67;38.62;100378.13;5077371;28;45416;-57
2021/08/01 05:00:33;;;;;;;;;0.00;0.00;;;;;26.68;38.80;100379.91;5077364;28;45420;-58
2021/08/01 05:03:01;;;;;;;;;0.00;0.00;;;;;26.69;38.94;100380.75;5077071;27;45723;-59
2021/08/01 05:05:27;;;;;;;;;0.00;0.00;;;;;26.67;38.68;100377.25;5058765;28;44866;-59
2021/08/01 05:07:53;;;;;;;;;0.00;0.00;;;;;26.66;38.29;100373.66;5059017;28;45395;-59
2021/08/01 05:10:18;;;;;;;;;0.00;0.00;;;;;26.67;38.39;100372.66;5077145;28;45374;-59
2021/08/01 05:12:45;;;;;;;;;0.00;0.00;;;;;26.67;38.63;100366.34;5077129;28;46138;-57
2021/08/01 05:15:11;;;;;;;;;0.00;0.00;;;;;26.64;39.05;100372.88;5076787;28;45444;-59
2021/08/01 05:17:36;;;;;;;;;0.00;0.00;;;;;26.65;38.73;100369.16;5077084;28;45744;-59
2021/08/01 05:20:03;;;;;;;;;0.00;0.00;;;;;26.66;38.56;100378.19;5077720;28;45631;-58
2021/08/01 05:22:28;;;;;;;;;0.00;0.00;;;;;26.66;38.40;100379.09;5077039;28;45899;-59
2021/08/01 05:24:54;;;;;;;;;0.00;0.00;;;;;26.67;38.34;100377.25;5076795;28;45456;-59
2021/08/01 05:27:19;;;;;;;;;0.00;0.00;;;;;26.67;38.96;100386.31;5076929;28;45721;-59
2021/08/01 05:29:44;;;;;;;;;0.00;0.00;;;;;26.67;38.53;100388.16;5075509;28;45568;-59
2021/08/01 05:32:10;;;;;;;;;0.00;0.00;;;;;26.65;38.85;100382.78;5058205;28;45925;-59
2021/08/01 05:34:35;;;;;;;;;0.00;0.00;;;;;26.65;38.39;100379.19;5058166;28;45513;-58
2021/08/01 05:37:01;;;;;;;;;0.00;0.00;;;;;26.66;38.35;100381.84;5058238;28;45510;-59
2021/08/01 05:39:26;;;;;;;;;0.00;0.00;;;;;26.67;38.37;100382.72;5076717;28;45492;-59
2021/08/01 05:41:52;;;;;;;;;0.00;0.00;;;;;26.66;38.88;100379.09;5058394;28;46707;-59
2021/08/01 05:44:17;;;;;;;;;0.00;0.00;;;;;26.67;38.95;100388.16;5076264;28;45360;-58
2021/08/01 05:46:43;;;;;;;;;0.00;0.00;;;;;26.67;38.86;100385.44;5075596;28;45450;-59
2021/08/01 05:49:08;;;;;;;;;0.00;0.00;;;;;26.68;38.80;100385.34;5076522;28;45457;-59
2021/08/01 05:51:33;;;;;;;;;0.00;0.00;;;;;26.68;38.46;100389.91;5076392;28;45432;-59
2021/08/01 05:53:59;;;;;;;;;0.00;0.00;;;;;26.70;38.39;100396.16;5076216;28;45621;-58
2021/08/01 05:56:24;;;;;;;;;0.00;0.00;;;;;26.70;38.81;100386.13;5076072;28;45756;-59
2021/08/01 05:58:49;;;;;;;;;0.00;0.00;;;;;26.72;38.25;100391.47;5076326;28;45624;-59
2021/08/01 06:01:24;;;;;;;;;0.00;0.00;;;;;26.72;38.71;100392.38;5075868;28;45937;-57
2021/08/01 06:03:50;;;;;;;;;0.00;0.00;;;;;26.74;38.83;100381.34;5075960;27;45485;-59
2021/08/01 06:06:17;;;;;;;;;0.00;0.00;;;;;26.75;38.97;100388.59;5076014;28;45421;-58
2021/08/01 06:08:45;;;;;;;;;0.00;0.00;;;;;26.77;38.49;100385.78;5076110;28;45531;-58
2021/08/01 06:11:11;;;;;;;;;0.00;0.00;;;;;26.76;38.47;100382.16;5057524;28;46497;-58
2021/08/01 06:13:45;;;;;;;;;0.00;0.00;;;;;26.79;38.74;100400.22;5075873;28;45699;-58
2021/08/01 06:16:12;;;;;;;;;0.00;0.00;;;;;26.78;38.28;100393.84;5075868;28;45468;-59
2021/08/01 06:18:39;;;;;;;;;0.00;0.00;;;;;26.82;38.67;100391.81;5075883;28;45353;-58
2021/08/01 06:21:16;;;;;;;;;0.00;0.00;;;;;26.82;38.68;100406.34;5075800;28;46301;-58
2021/08/01 06:23:49;;;;;;;;;0.00;0.00;;;;;26.81;38.59;100390.09;5075929;28;44892;-59
2021/08/01 06:26:17;;;;;;;;;0.00;0.00;;;;;26.83;38.72;100402.66;5075778;28;45420;-58
2021/08/01 06:28:43;;;;;;;;;0.00;0.00;;;;;26.83;38.41;100405.38;5076272;28;45469;-58
2021/08/01 06:31:09;;;;;;;;;0.00;0.00;;;;;26.84;38.11;100407.13;5074319;28;46138;-59
2021/08/01 06:33:35;;;;;;;;;0.00;0.00;;;;;26.85;38.22;100414.34;5075965;28;45627;-58
2021/08/01 06:36:08;;;;;;;;;0.00;0.00;;;;;26.87;38.02;100409.69;5075748;28;45527;-58
2021/08/01 06:38:34;;;;;;;;;0.00;0.00;;;;;26.88;38.41;100414.16;5076002;28;45433;-58
2021/08/01 06:40:59;;;;;;;;;0.00;0.00;;;;;26.89;38.49;100410.47;5075389;28;45812;-58
2021/08/01 06:43:25;;;;;;;;;0.00;0.00;;;;;26.89;38.06;100405.00;5075548;28;45440;-57
2021/08/01 06:45:50;;;;;;;;;0.00;0.00;;;;;26.89;38.47;100410.47;5075673;28;45459;-58
2021/08/01 06:48:15;;;;;;;;;0.00;0.00;;;;;26.91;38.07;100416.72;5057215;28;45528;-59
2021/08/01 06:50:41;;;;;;;;;0.00;0.00;;;;;26.94;38.15;100418.38;5075235;28;45475;-56
2021/08/01 06:53:06;;;;;;;;;0.00;0.00;;;;;26.93;38.40;100414.78;5075348;28;45721;-58
2021/08/01 06:55:32;;;;;;;;;0.00;0.00;;;;;26.96;37.97;100415.56;5075505;28;45704;-58
2021/08/01 06:57:57;;;;;;;;;0.00;0.00;;;;;26.96;37.96;100421.03;5075489;28;45416;-58
2021/08/01 07:00:23;;;;;;;;;0.00;0.00;;;;;26.96;38.39;100410.09;5075034;28;46875;-58
2021/08/01 07:02:56;;;;;;;;;0.00;0.00;;;;;26.99;38.23;100434.50;5075294;28;45784;-58
2021/08/01 07:05:22;;;;;;;;;0.00;0.00;;;;;26.97;38.17;100415.47;5056739;28;45402;-58
2021/08/01 07:07:47;;;;;;;;;0.00;0.00;;;;;27.01;38.23;100424.38;5075499;28;45419;-59
2021/08/01 07:10:13;;;;;;;;;0.00;0.00;;;;;27.00;38.37;100418.00;5074808;28;46158;-57
2021/08/01 07:12:41;;;;;;;;;0.00;0.00;;;;;27.00;38.14;100409.81;5075160;28;45394;-58
2021/08/01 07:15:13;;;;;;;;;0.00;0.00;;;;;27.04;38.38;100424.19;5075363;28;45413;-58
2021/08/01 07:17:39;;;;;;;;;0.00;0.00;;;;;27.05;38.27;100425.94;5075025;28;45444;-58
2021/08/01 07:20:07;;;;;;;;;0.00;0.00;;;;;27.04;38.00;100427.78;5074820;28;45858;-58
2021/08/01 07:22:32;;;;;;;;;0.00;0.00;;;;;27.07;38.39;100432.19;5056578;28;45374;-58
2021/08/01 07:24:57;;;;;;;;;0.00;0.00;;;;;27.08;37.80;100432.09;5056556;28;45726;-58
2021/08/01 07:27:30;;;;;;;;;0.00;0.00;;;;;27.08;38.17;100432.09;5074560;28;45414;-58
2021/08/01 07:30:04;;;;;;;;;0.00;0.00;;;;;27.12;37.61;100435.50;5073499;28;46158;-59
2021/08/01 07:32:29;;;;;;;;;0.00;0.00;;;;;27.13;37.94;100445.47;5074706;28;45530;-58
2021/08/01 07:34:55;;;;;;;;;0.00;0.00;;;;;27.15;37.80;100449.00;5056492;28;45406;-58
2021/08/01 07:37:20;;;;;;;;;0.00;0.00;;;;;27.16;38.26;100453.47;5075010;28;45420;-58
2021/08/01 07:39:46;;;;;;;;;0.00;0.00;;;;;27.18;37.63;100446.06;5056111;28;45808;-58
2021/08/01 07:42:12;;;;;;;;;0.00;0.00;;;;;27.20;37.67;100446.84;5074598;28;45478;-58
2021/08/01 07:47:34;;;;;;;;;0.00;0.00;;;;;27.25;37.96;100454.81;5057182;28;45439;-58
2021/08/01 07:50:01;;;;;;;;;0.00;0.00;;;;;27.26;38.26;100446.50;5074010;28;46813;-58
2021/08/01 07:52:26;;;;;;;;;0.00;0.00;;;;;27.28;38.07;100449.16;5074142;28;45586;-59
2021/08/01 07:54:51;;;;;;;;;0.00;0.00;;;;;27.30;38.08;100450.81;5074505;28;45811;-58
2021/08/01 07:57:27;;;;;;;;;0.00;0.00;;;;;27.33;37.90;100450.66;5056292;28;45804;-58
2021/08/01 07:59:54;;;;;;;;;0.00;0.00;;;;;27.36;37.93;100454.16;5055833;28;46169;-58
2021/08/01 08:02:20;;;;;;;;;0.00;0.00;;;;;27.37;37.45;100454.06;5074196;27;45692;-58
2021/08/01 08:04:46;;;;;;;;;0.00;0.00;;;;;27.40;38.07;100453.88;5074233;28;45421;-58
2021/08/01 08:07:11;;;;;;;;;0.00;0.00;;;;;27.41;37.33;100449.28;5074325;28;45400;-59
2021/08/01 08:09:38;;;;;;;;;0.00;0.00;;;;;27.43;37.68;100452.78;5077071;28;45394;-58
2021/08/01 08:12:04;;;;;;;;;0.00;0.00;;;;;27.43;37.76;100444.59;5077837;28;45456;-58
2021/08/01 08:14:29;;;;;;;;;0.00;0.00;;;;;27.46;37.25;100455.34;5078168;28;45577;-58
2021/08/01 08:16:54;;;;;;;;;0.00;0.00;;;;;27.48;37.35;100458.88;5078173;28;45460;-58
2021/08/01 08:19:20;;;;;;;;;0.00;0.00;;;;;27.50;37.90;100463.25;5077613;28;45455;-58
2021/08/01 08:21:47;;;;;;;;;0.00;0.00;;;;;27.51;37.33;100466.88;5077915;28;45525;-58
2021/08/01 08:24:12;;;;;;;;;0.00;0.00;;;;;27.51;37.27;100461.41;5078043;28;45725;-58
2021/08/01 08:26:37;;;;;;;;;0.00;0.00;;;;;27.51;37.76;100470.50;5077736;28;45447;-58
2021/08/01 08:29:03;;;;;;;;;0.00;0.00;;;;;27.54;37.78;100469.44;5077622;28;46492;-57
2021/08/01 08:31:35;;;;;;;;;0.00;0.00;;;;;27.53;37.46;100471.28;5055829;28;45671;-57
2021/08/01 08:34:02;;;;;;;;;0.00;0.00;;;;;27.54;37.40;100469.44;5057272;28;45499;-58
2021/08/01 08:36:27;;;;;;;;;0.00;0.00;;;;;27.55;37.08;100468.44;5056360;28;45502;-58
2021/08/01 08:38:52;;;;;;;;;0.00;0.00;;;;;27.55;37.57;100471.16;5055732;28;47248;-58
2021/08/01 08:41:20;;;;;;;;;0.00;0.00;;;;;27.57;37.22;100474.72;5057256;28;45349;-58
2021/08/01 08:43:46;;;;;;;;;0.00;0.00;;;;;27.58;37.58;100484.66;5057263;28;44884;-58
2021/08/01 08:46:13;;;;;;;;;0.00;0.00;;;;;27.59;37.10;100475.50;5057472;28;45496;-58
2021/08/01 08:48:39;;;;;;;;;0.00;0.00;;;;;27.61;37.15;100475.38;5055779;28;47588;-58
2021/08/01 08:51:10;;;;;;;;;0.00;0.00;;;;;27.62;37.51;100471.69;5056838;28;45488;-58
2021/08/01 08:53:42;;;;;;;;;0.00;0.00;;;;;27.60;37.37;100470.91;5057278;28;45472;-58
2021/08/01 08:56:09;;;;;;;;;0.00;0.00;;;;;27.65;37.14;100479.69;5057257;28;45453;-58
2021/08/01 08:58:36;;;;;;;;;0.00;0.00;;;;;27.66;37.07;100470.53;5056798;28;46714;-58
2021/08/01 09:01:04;;;;;;;;;0.00;0.00;;;;;27.67;37.65;100472.28;5055656;28;45869;-57
2021/08/01 09:03:29;;;;;;;;;0.00;0.00;;;;;27.69;37.13;100476.69;5057019;28;45515;-58
2021/08/01 09:05:56;;;;;;;;;0.00;0.00;;;;;27.70;37.55;100475.69;5056900;28;45603;-58
2021/08/01 09:08:23;;;;;;;;;0.00;0.00;;;;;27.68;37.13;100474.91;5056969;28;45927;-58
2021/08/01 09:10:50;;;;;;;;;0.00;0.00;;;;;27.73;37.23;100472.78;5056861;28;45705;-58
2021/08/01 09:13:42;;;;;;;;;0.00;0.00;;;;;27.76;37.46;100476.31;5056922;28;45435;-58
2021/08/01 09:16:07;;;;;;;;;0.00;0.00;;;;;27.77;36.95;100478.06;5057006;28;45446;-58
2021/08/01 09:18:33;;;;;;;;;0.00;0.00;;;;;27.78;37.29;100471.63;5056544;28;45424;-58
2021/08/01 09:20:58;;;;;;;;;0.00;0.00;;;;;27.79;36.63;100481.56;5055670;28;45454;-58
2021/08/01 09:23:23;;;;;;;;;0.00;0.00;;;;;27.83;37.02;100477.66;5057052;28;45459;-58
2021/08/01 09:26:00;;;;;;;;;0.00;0.00;;;;;27.83;37.04;100484.00;5072299;28;45586;-58
2021/08/01 09:28:26;;;;;;;;;0.00;0.00;;;;;27.86;37.08;100477.50;5056264;28;45430;-58
2021/08/01 09:30:53;;;;;;;;;0.00;0.00;;;;;27.87;37.42;100485.59;5066517;28;45920;-58
2021/08/01 09:33:39;;;;;;;;;0.00;0.00;;;;;27.88;36.69;100481.03;5076827;28;45895;-56
2021/08/01 09:36:07;;;;;;;;;0.00;0.00;;;;;27.90;37.26;100481.81;5076783;28;45448;-58
2021/08/01 09:38:49;;;;;;;;;0.00;0.00;;;;;27.90;37.17;100466.31;5076455;28;45898;-57
2021/08/01 09:41:17;;;;;;;;;0.00;0.00;;;;;27.92;36.75;100477.16;5076328;28;45500;-58
2021/08/01 09:43:57;;;;;;;;;0.00;0.00;;;;;27.93;36.87;100474.31;5076603;28;45423;-58
2021/08/01 09:46:37;;;;;;;;;0.00;0.00;;;;;27.96;36.50;100472.38;5076471;28;45549;-58
2021/08/01 09:49:12;;;;;;;;;0.00;0.00;;;;;27.96;37.28;100477.84;5076101;28;45481;-59
2021/08/01 09:51:40;;;;;;;;;0.00;0.00;;;;;27.97;37.21;100477.72;5076404;28;45448;-58
2021/08/01 09:54:06;;;;;;;;;0.00;0.00;;;;;27.98;36.67;100475.88;5076347;28;45467;-59
2021/08/01 09:56:31;;;;;;;;;0.00;0.00;;;;;27.99;36.58;100470.28;5076351;28;45416;-54
2021/08/01 09:58:59;;;;;;;;;0.00;0.00;;;;;28.01;36.72;100471.06;5075697;28;46019;-58
2021/08/01 10:01:25;;;;;;;;;0.00;0.00;;;;;28.02;36.83;100470.13;5058413;28;45505;-55
2021/08/01 10:03:51;;;;;;;;;0.00;0.00;;;;;28.01;36.89;100460.16;5076050;27;45451;-57
2021/08/01 10:06:21;;;;;;;;;0.00;0.00;;;;;28.05;37.10;100464.44;5076276;28;45417;-58
2021/08/01 10:08:49;;;;;;;;;0.00;0.00;;;;;28.06;37.23;100466.22;5075879;28;45712;-57
2021/08/01 10:11:21;;;;;;;;;0.00;0.00;;;;;28.08;36.97;100467.00;5076272;28;45787;-58
2021/08/01 10:13:49;;;;;;;;;0.00;0.00;;;;;28.09;37.15;100463.28;5057390;28;45477;-58
2021/08/01 10:16:14;;;;;;;;;0.00;0.00;;;;;28.10;36.94;100465.03;5057920;28;45485;-58
2021/08/01 10:18:42;;;;;;;;;0.00;0.00;;;;;28.10;36.74;100458.69;5057495;28;47081;-59
2021/08/01 10:21:11;;;;;;;;;0.00;0.00;;;;;28.11;36.16;100460.44;5075749;28;45473;-58
2021/08/01 10:23:45;;;;;;;;;0.00;0.00;;;;;28.14;36.38;100465.72;5076050;28;45400;-58
2021/08/01 10:26:13;;;;;;;;;0.00;0.00;;;;;28.15;36.54;100452.94;5075912;28;45430;-57
2021/08/01 10:28:50;;;;;;;;;0.00;0.00;;;;;28.16;36.64;100449.19;5075606;28;46645;-58
2021/08/01 10:31:19;;;;;;;;;0.00;0.00;;;;;28.16;36.91;100447.38;5073892;28;45690;-58
2021/08/01 10:33:57;;;;;;;;;0.00;0.00;;;;;28.17;36.56;100456.44;5075925;28;45451;-58
2021/08/01 10:36:28;;;;;;;;;0.00;0.00;;;;;28.19;36.11;100452.63;5075712;28;45472;-58
2021/08/01 10:39:00;;;;;;;;;0.00;0.00;;;;;28.19;36.38;100452.63;5075711;28;45416;-58
2021/08/01 10:41:30;;;;;;;;;0.00;0.00;;;;;28.20;36.42;100448.03;5075573;28;45765;-58
2021/08/01 10:44:02;;;;;;;;;0.00;0.00;;;;;28.20;36.75;100448.94;5056937;28;45444;-59
2021/08/01 10:46:27;;;;;;;;;0.00;0.00;;;;;28.22;36.38;100451.53;5057623;28;45595;-58
2021/08/01 10:48:53;;;;;;;;;0.00;0.00;;;;;28.22;36.61;100448.81;5075436;28;45492;-57
2021/08/01 10:51:18;;;;;;;;;0.00;0.00;;;;;28.22;36.64;100437.88;5075350;28;45383;-58
2021/08/01 10:53:44;;;;;;;;;0.00;0.00;;;;;28.25;36.72;100451.34;5075547;28;45462;-58
2021/08/01 10:56:30;;;;;;;;;0.00;0.00;;;;;28.26;36.50;100447.66;5075954;28;45426;-58
2021/08/01 10:58:55;;;;;;;;;0.00;0.00;;;;;28.24;36.15;100445.03;5074800;28;45519;-57
2021/08/01 11:01:21;;;;;;;;;0.00;0.00;;;;;28.25;36.15;100445.88;5075269;28;45342;-58
2021/08/01 11:03:46;;;;;;;;;0.00;0.00;;;;;28.25;36.66;100445.88;5075293;27;45365;-58
2021/08/01 11:06:40;;;;;;;;;0.00;0.00;;;;;28.24;35.95;100450.50;5075188;28;45360;-59
2021/08/01 11:09:12;;;;;;;;;0.00;0.00;;;;;28.25;36.24;100440.41;5075060;28;45401;-59
2021/08/01 11:11:38;;;;;;;;;0.00;0.00;;;;;28.26;36.75;100436.72;5056874;28;45421;-59
2021/08/01 11:14:03;;;;;;;;;0.00;0.00;;;;;28.25;36.40;100424.00;5075202;28;45339;-59
2021/08/01 11:16:31;;;;;;;;;0.00;0.00;;;;;28.25;36.11;100430.34;5075372;28;45465;-59
2021/08/01 11:18:57;;;;;;;;;0.00;0.00;;;;;28.27;36.33;100427.53;5074922;28;45392;-58
2021/08/01 11:21:38;;;;;;;;;0.00;0.00;;;;;28.27;35.90;100428.41;5074798;28;45410;-59
2021/08/01 11:24:05;;;;;;;;;0.00;0.00;;;;;28.27;36.34;100422.94;5074861;28;45381;-57
2021/08/01 11:26:30;;;;;;;;;0.00;0.00;;;;;28.27;36.26;100416.59;5056824;28;44968;-59
2021/08/01 11:29:10;;;;;;;;;0.00;0.00;;;;;28.28;36.25;100423.84;5074357;28;45393;-59
2021/08/01 11:31:38;;;;;;;;;0.00;0.00;;;;;28.26;36.45;100412.13;5073447;28;45577;-58
2021/08/01 11:34:22;;;;;;;;;0.00;0.00;;;;;28.28;36.06;100421.09;5075030;28;45424;-59